Time;durP1;ratioP1;P1;durP2;ratioP2;P2;SDS_P1;SDS_P2;PMS_P1;PMS_P2;Temp;Humidity;BMP_temperature;BMP_pressure;BME280_temperature;BME280_humidity;BME280_pressure;Samples;Min_cycle;Max_cycle;Signal;HPM_P1;HPM_P2
2023/12/08 00:01:10;;;;;;;;;;;;;;;;;;2188680;59;2153;-21
2023/12/08 00:03:41;;;;;;;;;;;;;;;;;;2187920;59;2574;-21
2023/12/08 00:06:11;;;;;;;;;;;;;;;;;;2188866;59;2656;-21
2023/12/08 00:08:41;;;;;;;;;;;;;;;;;;2190337;59;1941;-21
2023/12/08 00:11:12;;;;;;;;;;;;;;;;;;2188722;59;2384;-21
2023/12/08 00:13:42;;;;;;;;;;;;;;;;;;2188637;67;1961;-21
2023/12/08 00:16:12;;;;;;;;;;;;;;;;;;2188978;59;2054;-21
2023/12/08 00:18:42;;;;;;;;;;;;;;;;;;2188763;59;2352;-21
2023/12/08 00:21:13;;;;;;;;;;;;;;;;;;2188456;59;1903;-21
2023/12/08 00:23:44;;;;;;;;;;;;;;;;;;2189643;67;2789;-21
2023/12/08 00:26:14;;;;;;;;;;;;;;;;;;2190140;67;2028;-21
2023/12/08 00:28:44;;;;;;;;;;;;;;;;;;2187680;59;2334;-21
2023/12/08 00:31:15;;;;;;;;;;;;;;;;;;2188247;67;1711;-21
2023/12/08 00:33:45;;;;;;;;;;;;;;;;;;2188898;67;1589;-21
2023/12/08 00:36:16;;;;;;;;;;;;;;;;;;2200742;67;1442;-21
2023/12/08 00:38:46;;;;;;;;;;;;;;;;;;2189912;60;1589;-21
2023/12/08 00:41:17;;;;;;;;;;;;;;;;;;2187989;59;1769;-21
2023/12/08 00:43:47;;;;;;;;;;;;;;;;;;2189785;67;1286;-21
2023/12/08 00:46:17;;;;;;;;;;;;;;;;;;2187275;67;1259;-21
2023/12/08 00:48:48;;;;;;;;;;;;;;;;;;2189082;67;1972;-21
2023/12/08 00:51:18;;;;;;;;;;;;;;;;;;2189052;67;1286;-20
2023/12/08 00:53:48;;;;;;;;;;;;;;;;;;2190665;67;1142;-20
2023/12/08 00:56:18;;;;;;;;;;;;;;;;;;2188157;59;3143;-20
2023/12/08 00:58:48;;;;;;;;;;;;;;;;;;2190678;59;2585;-20
2023/12/08 01:01:19;;;;;;;;;;;;;;;;;;2187615;59;2087;-20
2023/12/08 01:03:49;;;;;;;;;;;;;;;;;;2188843;59;2078;-20
2023/12/08 01:06:19;;;;;;;;;;;;;;;;;;2190426;59;1506;-20
2023/12/08 01:08:50;;;;;;;;;;;;;;;;;;2188485;59;1953;-20
2023/12/08 01:11:20;;;;;;;;;;;;;;;;;;2188152;59;1341;-20
2023/12/08 01:13:50;;;;;;;;;;;;;;;;;;2187120;67;1818;-20
2023/12/08 01:16:21;;;;;;;;;;;;;;;;;;2188448;59;1298;-20
2023/12/08 01:18:51;;;;;;;;;;;;;;;;;;2190705;67;1646;-20
2023/12/08 01:21:21;;;;;;;;;;;;;;;;;;2188041;67;1490;-21
2023/12/08 01:23:52;;;;;;;;;;;;;;;;;;2188959;67;1337;-20
2023/12/08 01:26:22;;;;;;;;;;;;;;;;;;2188855;67;1844;-20
2023/12/08 01:28:52;;;;;;;;;;;;;;;;;;2187538;59;2191;-20
2023/12/08 01:31:22;;;;;;;;;;;;;;;;;;2188591;59;1540;-20
2023/12/08 01:33:52;;;;;;;;;;;;;;;;;;2188752;59;1527;-20
2023/12/08 01:36:23;;;;;;;;;;;;;;;;;;2186433;67;1230;-20
2023/12/08 01:38:53;;;;;;;;;;;;;;;;;;2188179;67;1283;-20
2023/12/08 01:41:23;;;;;;;;;;;;;;;;;;2187228;59;1629;-20
2023/12/08 01:43:54;;;;;;;;;;;;;;;;;;2188369;67;1433;-20
2023/12/08 01:46:24;;;;;;;;;;;;;;;;;;2188335;67;1290;-20
2023/12/08 01:48:55;;;;;;;;;;;;;;;;;;2188067;67;2007;-20
2023/12/08 01:51:25;;;;;;;;;;;;;;;;;;2187612;67;1401;-20
2023/12/08 01:53:56;;;;;;;;;;;;;;;;;;2189899;67;1615;-20
2023/12/08 01:56:27;;;;;;;;;;;;;;;;;;2189368;67;1934;-20
2023/12/08 01:58:57;;;;;;;;;;;;;;;;;;2188725;59;1137;-20
2023/12/08 02:01:28;;;;;;;;;;;;;;;;;;2189020;59;1482;-20
2023/12/08 02:03:59;;;;;;;;;;;;;;;;;;2188808;59;2293;-20
2023/12/08 02:06:29;;;;;;;;;;;;;;;;;;2187898;59;1285;-20
2023/12/08 02:08:59;;;;;;;;;;;;;;;;;;2187922;59;1939;-20
2023/12/08 02:11:30;;;;;;;;;;;;;;;;;;2188796;59;1463;-20
2023/12/08 02:14:00;;;;;;;;;;;;;;;;;;2189417;59;1549;-20
2023/12/08 02:16:40;;;;;;;;;;;;;;;;;;2190052;59;1455;-20
2023/12/08 02:19:12;;;;;;;;;;;;;;;;;;2188336;67;2038;-20
2023/12/08 02:21:42;;;;;;;;;;;;;;;;;;2189040;67;1296;-20
2023/12/08 02:24:13;;;;;;;;;;;;;;;;;;2190297;67;1291;-20
2023/12/08 02:26:43;;;;;;;;;;;;;;;;;;2189444;67;1262;-20
2023/12/08 02:29:13;;;;;;;;;;;;;;;;;;2187936;59;2250;-20
2023/12/08 02:31:59;;;;;;;;;;;;;;;;;;2188547;59;1516;-20
2023/12/08 02:34:31;;;;;;;;;;;;;;;;;;2188874;67;1284;-20
2023/12/08 02:37:03;;;;;;;;;;;;;;;;;;2187705;67;1960;-20
2023/12/08 02:39:34;;;;;;;;;;;;;;;;;;2189315;67;1226;-20
2023/12/08 02:42:05;;;;;;;;;;;;;;;;;;2189809;59;1669;-20
2023/12/08 02:44:36;;;;;;;;;;;;;;;;;;2189463;67;1738;-20
2023/12/08 02:47:06;;;;;;;;;;;;;;;;;;2188563;67;1171;-20
2023/12/08 02:49:37;;;;;;;;;;;;;;;;;;2189134;67;1939;-20
2023/12/08 02:52:07;;;;;;;;;;;;;;;;;;2188914;67;1333;-20
2023/12/08 02:54:53;;;;;;;;;;;;;;;;;;;;;
2023/12/08 02:57:32;;;;;;;;;;;;;;;;;;2189835;67;1282;-20
2023/12/08 03:00:11;;;;;;;;;;;;;;;;;;2188483;67;1370;-20
2023/12/08 03:02:50;;;;;;;;;;;;;;;;;;2190401;59;2269;-20
2023/12/08 03:05:35;;;;;;;;;;;;;;;;;;2189595;59;2423;-20
2023/12/08 03:08:34;;;;;;;;;;;;;;;;;;2188379;59;2437;-20
2023/12/08 03:11:17;;;;;;;;;;;;;;;;;;2189669;59;1584;-20
2023/12/08 03:14:16;;;;;;;;;;;;;;;;;;2188572;59;1694;-20
2023/12/08 03:16:55;;;;;;;;;;;;;;;;;;2190292;59;1239;-20
2023/12/08 03:19:54;;;;;;;;;;;;;;;;;;2187559;67;1863;-20
2023/12/08 03:22:59;;;;;;;;;;;;;;;;;;2189573;67;2057;-20
2023/12/08 03:25:42;;;;;;;;;;;;;;;;;;2189026;59;1341;-20
2023/12/08 03:28:15;;;;;;;;;;;;;;;;;;2188726;59;1958;-20
2023/12/08 03:30:57;;;;;;;;;;;;;;;;;;2189454;59;2156;-20
2023/12/08 03:34:01;;;;;;;;;;;;;;;;;;2189489;59;1320;-20
2023/12/08 03:36:55;;;;;;;;;;;;;;;;;;2198019;67;1339;-20
2023/12/08 03:39:37;;;;;;;;;;;;;;;;;;2197634;59;2469;-20
2023/12/08 03:42:19;;;;;;;;;;;;;;;;;;2189154;59;1791;-20
2023/12/08 03:44:56;;;;;;;;;;;;;;;;;;2189609;59;1444;-20
2023/12/08 03:47:29;;;;;;;;;;;;;;;;;;2188524;59;1259;-20
2023/12/08 03:50:19;;;;;;;;;;;;;;;;;;2188285;67;1942;-20
2023/12/08 03:52:54;;;;;;;;;;;;;;;;;;2188190;67;1170;-20
2023/12/08 03:55:41;;;;;;;;;;;;;;;;;;2190884;67;1338;-20
2023/12/08 03:58:39;;;;;;;;;;;;;;;;;;2187764;59;1724;-20
2023/12/08 04:01:28;;;;;;;;;;;;;;;;;;2188214;59;1334;-20
2023/12/08 04:04:14;;;;;;;;;;;;;;;;;;2188493;59;2361;-20
2023/12/08 04:06:56;;;;;;;;;;;;;;;;;;2188711;59;1663;-20
2023/12/08 04:09:32;;;;;;;;;;;;;;;;;;2188981;59;1993;-20
2023/12/08 04:12:13;;;;;;;;;;;;;;;;;;2188356;59;1525;-20
2023/12/08 04:14:54;;;;;;;;;;;;;;;;;;2188306;59;1402;-20
2023/12/08 04:17:54;;;;;;;;;;;;;;;;;;2186039;62;1578;-20
2023/12/08 04:20:43;;;;;;;;;;;;;;;;;;2188707;67;1654;-20
2023/12/08 04:32:00;;;;;;;;;;;;;;;;;;2221118;54;2476;-77
2023/12/08 04:34:31;;;;;;;;;;;;;;;;;;2211523;59;1720;-77
2023/12/08 04:37:04;;;;;;;;;;;;;;;;;;2212545;59;1644;-77
2023/12/08 04:39:34;;;;;;;;;;;;;;;;;;2211313;59;1875;-77
2023/12/08 04:42:22;;;;;;;;;;;;;;;;;;2212301;59;1756;-77
2023/12/08 04:44:52;;;;;;;;;;;;;;;;;;2212935;59;2077;-77
2023/12/08 04:47:23;;;;;;;;;;;;;;;;;;2214276;59;2795;-77
2023/12/08 04:49:53;;;;;;;;;;;;;;;;;;2216294;59;2055;-78
2023/12/08 04:52:23;;;;;;;;;;;;;;;;;;2213664;59;1760;-78
2023/12/08 04:55:01;;;;;;;;;;;;;;;;;;2213844;59;1836;-78
2023/12/08 04:57:38;;;;;;;;;;;;;;;;;;2213584;59;2261;-78
2023/12/08 05:00:08;;;;;;;;;;;;;;;;;;2213859;59;1447;-78
2023/12/08 05:02:39;;;;;;;;;;;;;;;;;;2217079;59;2158;-77
2023/12/08 05:05:09;;;;;;;;;;;;;;;;;;2212774;62;1688;-77
2023/12/08 05:07:39;;;;;;;;;;;;;;;;;;2212199;59;1955;-78
2023/12/08 05:10:10;;;;;;;;;;;;;;;;;;2211882;59;2152;-77
2023/12/08 05:12:40;;;;;;;;;;;;;;;;;;2212571;63;2099;-77
2023/12/08 05:15:11;;;;;;;;;;;;;;;;;;2212558;59;2186;-77
2023/12/08 05:17:41;;;;;;;;;;;;;;;;;;2212764;59;1775;-77
2023/12/08 05:20:12;;;;;;;;;;;;;;;;;;2212918;59;1977;-77
2023/12/08 05:22:52;;;;;;;;;;;;;;;;;;2213494;59;1898;-77
2023/12/08 05:25:25;;;;;;;;;;;;;;;;;;2213375;66;1841;-77
2023/12/08 05:27:56;;;;;;;;;;;;;;;;;;2212958;59;1950;-78
2023/12/08 05:30:29;;;;;;;;;;;;;;;;;;2212655;59;2080;-78
2023/12/08 05:33:00;;;;;;;;;;;;;;;;;;2212734;59;2029;-78
2023/12/08 05:35:30;;;;;;;;;;;;;;;;;;2212212;59;1894;-78
2023/12/08 05:38:01;;;;;;;;;;;;;;;;;;2211685;59;2110;-78
2023/12/08 05:40:34;;;;;;;;;;;;;;;;;;2211493;59;2538;-77
2023/12/08 05:43:04;;;;;;;;;;;;;;;;;;2212028;59;1704;-78
2023/12/08 05:45:34;;;;;;;;;;;;;;;;;;2211571;59;1842;-78
2023/12/08 05:48:10;;;;;;;;;;;;;;;;;;2211771;59;1927;-78
2023/12/08 05:50:43;;;;;;;;;;;;;;;;;;2211990;59;1955;-77
2023/12/08 05:53:16;;;;;;;;;;;;;;;;;;2212058;58;2693;-77
2023/12/08 05:55:46;;;;;;;;;;;;;;;;;;2213041;59;2299;-77
2023/12/08 05:58:16;;;;;;;;;;;;;;;;;;2212290;59;1747;-77
2023/12/08 06:00:50;;;;;;;;;;;;;;;;;;2212726;59;2118;-78
2023/12/08 06:03:21;;;;;;;;;;;;;;;;;;2211157;59;2360;-77
2023/12/08 06:05:53;;;;;;;;;;;;;;;;;;2212282;59;1958;-77
2023/12/08 06:08:24;;;;;;;;;;;;;;;;;;2211978;59;1988;-78
2023/12/08 06:10:54;;;;;;;;;;;;;;;;;;2212646;59;1837;-77
2023/12/08 06:13:25;;;;;;;;;;;;;;;;;;2211964;59;2585;-77
2023/12/08 06:15:55;;;;;;;;;;;;;;;;;;2211370;59;1734;-77
2023/12/08 06:18:26;;;;;;;;;;;;;;;;;;2210989;67;2164;-77
2023/12/08 06:21:04;;;;;;;;;;;;;;;;;;2211453;59;1640;-78
2023/12/08 06:23:34;;;;;;;;;;;;;;;;;;2211692;59;1698;-77
2023/12/08 06:26:07;;;;;;;;;;;;;;;;;;2212461;59;2041;-77
2023/12/08 06:28:37;;;;;;;;;;;;;;;;;;2211236;59;2025;-77
2023/12/08 06:31:08;;;;;;;;;;;;;;;;;;2212710;59;2114;-77
2023/12/08 06:33:39;;;;;;;;;;;;;;;;;;2211863;59;2016;-77
2023/12/08 06:36:09;;;;;;;;;;;;;;;;;;2212487;59;1787;-78
2023/12/08 06:38:43;;;;;;;;;;;;;;;;;;2213801;59;2168;-78
2023/12/08 06:41:16;;;;;;;;;;;;;;;;;;2218684;59;1718;-78
2023/12/08 06:43:49;;;;;;;;;;;;;;;;;;2221210;59;1626;-78
2023/12/08 06:46:19;;;;;;;;;;;;;;;;;;2215110;59;2523;-78
2023/12/08 06:48:53;;;;;;;;;;;;;;;;;;2214384;59;2216;-77
2023/12/08 06:51:28;;;;;;;;;;;;;;;;;;2214357;59;1914;-77
2023/12/08 06:54:02;;;;;;;;;;;;;;;;;;2213976;59;1824;-78
2023/12/08 06:56:35;;;;;;;;;;;;;;;;;;2213443;59;1949;-78
2023/12/08 06:59:07;;;;;;;;;;;;;;;;;;2213322;58;2482;-77
2023/12/08 07:01:43;;;;;;;;;;;;;;;;;;2213095;59;1639;-77
2023/12/08 07:04:14;;;;;;;;;;;;;;;;;;2212850;59;2204;-77
2023/12/08 07:06:45;;;;;;;;;;;;;;;;;;2212852;59;1957;-77
2023/12/08 07:09:15;;;;;;;;;;;;;;;;;;2210793;59;2106;-78
2023/12/08 07:11:45;;;;;;;;;;;;;;;;;;2213298;59;1743;-78
2023/12/08 07:14:18;;;;;;;;;;;;;;;;;;2213524;59;1985;-77
2023/12/08 07:16:48;;;;;;;;;;;;;;;;;;2214100;59;2321;-78
2023/12/08 07:19:21;;;;;;;;;;;;;;;;;;2212883;59;1986;-77
2023/12/08 07:21:59;;;;;;;;;;;;;;;;;;2215156;59;2208;-77
2023/12/08 07:24:29;;;;;;;;;;;;;;;;;;2214615;59;1932;-78
2023/12/08 07:27:00;;;;;;;;;;;;;;;;;;2213874;66;1871;-78
2023/12/08 07:29:30;;;;;;;;;;;;;;;;;;2213120;59;2178;-78
2023/12/08 07:32:04;;;;;;;;;;;;;;;;;;2213041;59;2105;-78
2023/12/08 07:34:36;;;;;;;;;;;;;;;;;;2213637;59;1868;-78
2023/12/08 07:37:07;;;;;;;;;;;;;;;;;;2213801;59;1793;-78
2023/12/08 07:39:37;;;;;;;;;;;;;;;;;;2212826;59;2028;-78
2023/12/08 07:42:07;;;;;;;;;;;;;;;;;;2213139;59;2291;-77
2023/12/08 07:44:37;;;;;;;;;;;;;;;;;;2214711;59;2089;-77
2023/12/08 07:47:08;;;;;;;;;;;;;;;;;;2216723;58;1532;-79
2023/12/08 07:49:44;;;;;;;;;;;;;;;;;;2214097;59;1991;-77
2023/12/08 07:52:14;;;;;;;;;;;;;;;;;;2214182;59;2140;-77
2023/12/08 07:54:45;;;;;;;;;;;;;;;;;;2213554;59;2093;-77
2023/12/08 07:57:21;;;;;;;;;;;;;;;;;;2212102;59;2339;-77
2023/12/08 07:59:51;;;;;;;;;;;;;;;;;;2213409;59;2494;-77
2023/12/08 08:02:21;;;;;;;;;;;;;;;;;;2213979;59;2090;-78
2023/12/08 08:04:55;;;;;;;;;;;;;;;;;;2214109;59;2225;-78
2023/12/08 08:07:28;;;;;;;;;;;;;;;;;;2214259;59;2297;-77
2023/12/08 08:09:58;;;;;;;;;;;;;;;;;;2214423;59;2085;-77
2023/12/08 08:12:32;;;;;;;;;;;;;;;;;;2215642;58;2223;-77
2023/12/08 08:15:04;;;;;;;;;;;;;;;;;;2213087;59;1954;-78
2023/12/08 08:17:35;;;;;;;;;;;;;;;;;;2214315;58;2521;-78
2023/12/08 08:20:06;;;;;;;;;;;;;;;;;;2212267;59;1944;-77
2023/12/08 08:22:36;;;;;;;;;;;;;;;;;;2212402;59;1689;-78
2023/12/08 08:25:07;;;;;;;;;;;;;;;;;;2212702;59;1759;-78
2023/12/08 08:27:37;;;;;;;;;;;;;;;;;;2212144;59;2034;-77
2023/12/08 08:30:08;;;;;;;;;;;;;;;;;;2215272;58;2217;-77
2023/12/08 08:32:38;;;;;;;;;;;;;;;;;;2212255;66;2210;-78
2023/12/08 08:35:15;;;;;;;;;;;;;;;;;;2213509;59;1988;-78
2023/12/08 08:37:45;;;;;;;;;;;;;;;;;;2212126;59;1973;-78
2023/12/08 08:40:16;;;;;;;;;;;;;;;;;;2211742;59;2308;-77
2023/12/08 08:42:46;;;;;;;;;;;;;;;;;;2211498;59;2339;-78
2023/12/08 08:45:19;;;;;;;;;;;;;;;;;;2213845;59;2246;-77
2023/12/08 08:47:49;;;;;;;;;;;;;;;;;;2213948;59;2185;-77
2023/12/08 08:50:22;;;;;;;;;;;;;;;;;;2213096;59;2213;-78
2023/12/08 08:52:52;;;;;;;;;;;;;;;;;;2213491;59;2189;-77
2023/12/08 08:55:31;;;;;;;;;;;;;;;;;;2213236;59;2125;-78
2023/12/08 08:58:04;;;;;;;;;;;;;;;;;;2215510;59;1829;-77
2023/12/08 09:00:35;;;;;;;;;;;;;;;;;;2212443;59;1790;-78
2023/12/08 09:03:05;;;;;;;;;;;;;;;;;;2213923;59;2180;-77
2023/12/08 09:05:40;;;;;;;;;;;;;;;;;;2213191;59;2241;-78
2023/12/08 09:08:10;;;;;;;;;;;;;;;;;;2213637;59;2072;-78
2023/12/08 09:10:45;;;;;;;;;;;;;;;;;;2213473;59;1849;-78
2023/12/08 09:13:15;;;;;;;;;;;;;;;;;;2213835;63;1487;-78
2023/12/08 09:15:54;;;;;;;;;;;;;;;;;;2212739;59;1948;-77
2023/12/08 09:18:24;;;;;;;;;;;;;;;;;;2211522;59;1822;-78
2023/12/08 09:20:55;;;;;;;;;;;;;;;;;;2213428;59;1799;-78
2023/12/08 09:23:28;;;;;;;;;;;;;;;;;;2212866;59;3150;-78
2023/12/08 09:26:08;;;;;;;;;;;;;;;;;;2214785;59;1988;-78
2023/12/08 09:28:38;;;;;;;;;;;;;;;;;;2214578;59;1996;-78
2023/12/08 09:31:17;;;;;;;;;;;;;;;;;;2215014;59;2612;-78
2023/12/08 09:33:48;;;;;;;;;;;;;;;;;;2212614;66;7954;-79
2023/12/08 09:36:23;;;;;;;;;;;;;;;;;;2197782;59;7520;-78
2023/12/08 09:38:59;;;;;;;;;;;;;;;;;;2197857;59;6931;-78
2023/12/08 09:41:30;;;;;;;;;;;;;;;;;;2197157;59;6786;-78
2023/12/08 09:44:11;;;;;;;;;;;;;;;;;;2196238;64;7236;-78
2023/12/08 09:46:45;;;;;;;;;;;;;;;;;;2197591;59;7048;-79
2023/12/08 09:49:24;;;;;;;;;;;;;;;;;;2195800;64;9300;-79
2023/12/08 09:51:55;;;;;;;;;;;;;;;;;;2194320;64;8203;-79
2023/12/08 09:54:35;;;;;;;;;;;;;;;;;;2195676;59;6815;-80
2023/12/08 09:57:12;;;;;;;;;;;;;;;;;;2194946;60;8390;-79
2023/12/08 09:59:46;;;;;;;;;;;;;;;;;;2195671;59;6785;-79
2023/12/08 10:02:18;;;;;;;;;;;;;;;;;;2195047;59;6863;-79
2023/12/08 10:04:51;;;;;;;;;;;;;;;;;;2195259;59;6933;-79
2023/12/08 10:07:32;;;;;;;;;;;;;;;;;;2199112;59;6942;-78
2023/12/08 10:10:05;;;;;;;;;;;;;;;;;;2199062;59;7246;-79
2023/12/08 10:12:47;;;;;;;;;;;;;;;;;;2197159;59;7001;-78
2023/12/08 10:15:21;;;;;;;;;;;;;;;;;;2196042;59;7641;-78
2023/12/08 10:17:52;;;;;;;;;;;;;;;;;;2199933;59;6937;-78
2023/12/08 10:20:23;;;;;;;;;;;;;;;;;;2200871;59;7124;-79
2023/12/08 10:23:04;;;;;;;;;;;;;;;;;;2197351;59;6609;-78
2023/12/08 10:25:39;;;;;;;;;;;;;;;;;;2198305;59;6502;-77
2023/12/08 10:28:13;;;;;;;;;;;;;;;;;;2195854;59;7197;-78
2023/12/08 10:30:58;;;;;;;;;;;;;;;;;;2193789;59;7868;-79
2023/12/08 10:33:29;;;;;;;;;;;;;;;;;;2193552;60;8239;-78
2023/12/08 10:36:03;;;;;;;;;;;;;;;;;;2194650;59;6506;-78
2023/12/08 10:38:36;;;;;;;;;;;;;;;;;;2192042;59;6626;-79
2023/12/08 10:41:11;;;;;;;;;;;;;;;;;;2190387;60;8644;-79
2023/12/08 10:43:50;;;;;;;;;;;;;;;;;;2192062;59;7380;-78
2023/12/08 10:46:30;;;;;;;;;;;;;;;;;;2195583;59;1856;-78
2023/12/08 10:49:01;;;;;;;;;;;;;;;;;;2195396;59;1920;-78
2023/12/08 10:51:32;;;;;;;;;;;;;;;;;;2194790;59;2126;-77
2023/12/08 10:54:08;;;;;;;;;;;;;;;;;;2196887;67;1497;-78
2023/12/08 10:56:44;;;;;;;;;;;;;;;;;;2195570;59;1627;-77
2023/12/08 10:59:21;;;;;;;;;;;;;;;;;;2196371;59;3631;-77
2023/12/08 11:02:00;;;;;;;;;;;;;;;;;;2196282;59;2020;-77
2023/12/08 11:04:33;;;;;;;;;;;;;;;;;;2195292;59;2605;-78
2023/12/08 11:07:15;;;;;;;;;;;;;;;;;;2197056;59;3313;-78
2023/12/08 11:09:49;;;;;;;;;;;;;;;;;;2196300;59;2426;-78
2023/12/08 11:12:27;;;;;;;;;;;;;;;;;;2198262;59;2406;-80
2023/12/08 11:15:16;;;;;;;;;;;;;;;;;;2198249;59;2521;-78
2023/12/08 11:18:15;;;;;;;;;;;;;;;;;;2198926;59;1789;-78
2023/12/08 11:20:54;;;;;;;;;;;;;;;;;;2199051;59;2598;-76
2023/12/08 11:23:40;;;;;;;;;;;;;;;;;;2195841;59;2446;-78
2023/12/08 11:26:16;;;;;;;;;;;;;;;;;;2198197;59;2695;-79
2023/12/08 11:28:56;;;;;;;;;;;;;;;;;;2196477;59;3428;-78
2023/12/08 11:31:36;;;;;;;;;;;;;;;;;;2197439;59;2496;-78
2023/12/08 11:34:21;;;;;;;;;;;;;;;;;;2197217;59;1904;-78
2023/12/08 11:36:57;;;;;;;;;;;;;;;;;;2195627;67;2341;-78
2023/12/08 11:39:36;;;;;;;;;;;;;;;;;;2196113;67;2879;-78
2023/12/08 11:42:11;;;;;;;;;;;;;;;;;;2196475;59;2312;-78
2023/12/08 11:44:50;;;;;;;;;;;;;;;;;;2195774;59;2886;-78
2023/12/08 11:47:23;;;;;;;;;;;;;;;;;;2197431;59;2645;-78
2023/12/08 11:49:58;;;;;;;;;;;;;;;;;;2199207;59;2715;-78
2023/12/08 11:52:37;;;;;;;;;;;;;;;;;;2197042;59;1970;-78
2023/12/08 11:55:20;;;;;;;;;;;;;;;;;;2200608;59;2545;-78
2023/12/08 11:58:09;;;;;;;;;;;;;;;;;;2197444;59;2381;-78
2023/12/08 12:00:48;;;;;;;;;;;;;;;;;;2196847;59;2485;-78
2023/12/08 12:03:26;;;;;;;;;;;;;;;;;;2197901;59;2618;-78
2023/12/08 12:06:03;;;;;;;;;;;;;;;;;;2212396;59;2696;-78
2023/12/08 12:08:40;;;;;;;;;;;;;;;;;;2199025;59;2033;-78
2023/12/08 12:11:15;;;;;;;;;;;;;;;;;;2195028;59;2050;-78
2023/12/08 12:13:46;;;;;;;;;;;;;;;;;;2196127;59;2433;-78
2023/12/08 12:16:18;;;;;;;;;;;;;;;;;;2199600;59;2372;-77
2023/12/08 12:18:48;;;;;;;;;;;;;;;;;;2196270;67;2770;-78
2023/12/08 12:21:19;;;;;;;;;;;;;;;;;;2197555;59;2334;-78
2023/12/08 12:23:51;;;;;;;;;;;;;;;;;;2194887;59;2639;-78
2023/12/08 12:26:22;;;;;;;;;;;;;;;;;;2196947;59;2103;-78
2023/12/08 12:28:52;;;;;;;;;;;;;;;;;;2194826;59;3216;-77
2023/12/08 12:31:25;;;;;;;;;;;;;;;;;;2198276;59;2363;-78
2023/12/08 12:34:10;;;;;;;;;;;;;;;;;;;;;
2023/12/08 12:36:51;;;;;;;;;;;;;;;;;;2197830;67;1920;-78
2023/12/08 12:39:23;;;;;;;;;;;;;;;;;;2199208;59;2261;-77
2023/12/08 12:42:12;;;;;;;;;;;;;;;;;;2196738;59;3714;-78
2023/12/08 12:44:43;;;;;;;;;;;;;;;;;;2195597;59;2922;-77
2023/12/08 12:47:22;;;;;;;;;;;;;;;;;;2195469;59;3039;-79
2023/12/08 12:50:04;;;;;;;;;;;;;;;;;;2195101;60;2256;-78
2023/12/08 12:52:36;;;;;;;;;;;;;;;;;;2195885;67;2676;-79
2023/12/08 12:55:30;;;;;;;;;;;;;;;;;;2196694;59;2388;-78
2023/12/08 12:58:04;;;;;;;;;;;;;;;;;;2196560;59;2489;-78
2023/12/08 13:00:39;;;;;;;;;;;;;;;;;;2195223;59;3348;-78
2023/12/08 13:03:16;;;;;;;;;;;;;;;;;;2196418;59;2381;-78
2023/12/08 13:06:10;;;;;;;;;;;;;;;;;;2195101;67;2729;-78
2023/12/08 13:08:44;;;;;;;;;;;;;;;;;;2195315;59;2482;-78
2023/12/08 13:11:15;;;;;;;;;;;;;;;;;;2197058;59;2448;-78
2023/12/08 13:13:48;;;;;;;;;;;;;;;;;;2195668;67;2555;-78
2023/12/08 13:16:25;;;;;;;;;;;;;;;;;;2196957;59;2258;-78
2023/12/08 13:19:28;;;;;;;;;;;;;;;;;;2198929;59;3017;-79
2023/12/08 13:22:04;;;;;;;;;;;;;;;;;;2196074;59;2453;-81
2023/12/08 13:24:36;;;;;;;;;;;;;;;;;;2197700;59;2817;-78
2023/12/08 13:27:11;;;;;;;;;;;;;;;;;;2197529;67;2085;-78
2023/12/08 13:29:48;;;;;;;;;;;;;;;;;;2195005;59;2425;-78
2023/12/08 13:32:33;;;;;;;;;;;;;;;;;;2196143;59;2886;-78
2023/12/08 13:35:06;;;;;;;;;;;;;;;;;;2194835;59;2219;-77
2023/12/08 13:37:37;;;;;;;;;;;;;;;;;;2196007;60;2491;-78
2023/12/08 13:40:11;;;;;;;;;;;;;;;;;;2196776;59;2706;-79
2023/12/08 13:42:42;;;;;;;;;;;;;;;;;;2194667;67;2202;-78
2023/12/08 13:45:31;;;;;;;;;;;;;;;;;;2194682;59;2741;-78
2023/12/08 13:48:06;;;;;;;;;;;;;;;;;;2196720;59;2964;-80
2023/12/08 13:51:00;;;;;;;;;;;;;;;;;;2193663;59;8334;-77
2023/12/08 13:53:30;;;;;;;;;;;;;;;;;;2193701;59;6897;-77
2023/12/08 13:56:01;;;;;;;;;;;;;;;;;;2191047;59;6516;-77
2023/12/08 13:58:31;;;;;;;;;;;;;;;;;;2196254;59;6882;-80
2023/12/08 14:01:23;;;;;;;;;;;;;;;;;;2197357;59;6534;-83
2023/12/08 14:04:07;;;;;;;;;;;;;;;;;;2198617;59;7030;-83
2023/12/08 14:06:44;;;;;;;;;;;;;;;;;;2196487;59;8793;-79
2023/12/08 14:09:22;;;;;;;;;;;;;;;;;;2198148;59;7569;-80
2023/12/08 14:11:57;;;;;;;;;;;;;;;;;;2195523;59;6419;-80
2023/12/08 14:14:32;;;;;;;;;;;;;;;;;;2197192;59;6478;-79
2023/12/08 14:17:18;;;;;;;;;;;;;;;;;;2196426;59;6650;-82
2023/12/08 14:19:59;;;;;;;;;;;;;;;;;;2196122;59;6489;-80
2023/12/08 14:22:32;;;;;;;;;;;;;;;;;;2199651;59;8042;-81
2023/12/08 14:25:06;;;;;;;;;;;;;;;;;;2199015;59;6757;-80
2023/12/08 14:28:02;;;;;;;;;;;;;;;;;;2198686;59;7220;-82
2023/12/08 14:30:35;;;;;;;;;;;;;;;;;;2198692;59;8491;-80
2023/12/08 14:33:13;;;;;;;;;;;;;;;;;;2196455;59;6481;-80
2023/12/08 14:35:46;;;;;;;;;;;;;;;;;;2195767;59;6422;-80
2023/12/08 14:38:24;;;;;;;;;;;;;;;;;;2197199;59;6875;-80
2023/12/08 14:43:42;;;;;;;;;;;;;;;;;;2202151;59;7848;-18
2023/12/08 14:46:16;;;;;;;;;;;;;;;;;;2200095;59;6852;-17
2023/12/08 14:48:48;;;;;;;;;;;;;;;;;;2205448;59;6902;-17
2023/12/08 14:51:22;;;;;;;;;;;;;;;;;;2203073;67;7371;-18
2023/12/08 14:53:52;;;;;;;;;;;;;;;;;;2199097;59;6814;-17
2023/12/08 14:56:25;;;;;;;;;;;;;;;;;;2196551;59;6620;-18
2023/12/08 14:58:55;;;;;;;;;;;;;;;;;;2200013;59;8116;-17
2023/12/08 15:01:26;;;;;;;;;;;;;;;;;;2207069;59;6643;-17
2023/12/08 15:03:56;;;;;;;;;;;;;;;;;;2203319;59;6621;-17
2023/12/08 15:06:26;;;;;;;;;;;;;;;;;;2205559;59;7647;-18
2023/12/08 15:08:57;;;;;;;;;;;;;;;;;;2202648;59;6872;-18
2023/12/08 15:11:27;;;;;;;;;;;;;;;;;;2202851;59;6668;-18
2023/12/08 15:13:57;;;;;;;;;;;;;;;;;;2201281;59;6936;-21
2023/12/08 15:16:27;;;;;;;;;;;;;;;;;;2203614;59;7144;-18
2023/12/08 15:18:58;;;;;;;;;;;;;;;;;;2201378;67;6654;-18
2023/12/08 15:21:28;;;;;;;;;;;;;;;;;;2203409;59;6753;-18
2023/12/08 15:23:58;;;;;;;;;;;;;;;;;;2202895;59;7598;-18
2023/12/08 15:26:28;;;;;;;;;;;;;;;;;;2205748;59;7075;-18
2023/12/08 15:28:59;;;;;;;;;;;;;;;;;;2205427;59;6691;-18
2023/12/08 15:31:31;;;;;;;;;;;;;;;;;;2201968;59;7996;-19
2023/12/08 15:34:03;;;;;;;;;;;;;;;;;;2201019;59;8115;-18
2023/12/08 15:36:33;;;;;;;;;;;;;;;;;;2205001;67;8855;-20
2023/12/08 15:39:03;;;;;;;;;;;;;;;;;;2197404;59;6680;-21
2023/12/08 15:41:34;;;;;;;;;;;;;;;;;;2207011;59;6796;-22
2023/12/08 15:44:05;;;;;;;;;;;;;;;;;;2201710;59;6774;-21
2023/12/08 15:46:36;;;;;;;;;;;;;;;;;;2201574;59;8031;-18
2023/12/08 15:49:07;;;;;;;;;;;;;;;;;;2204504;59;8078;-20
2023/12/08 15:51:40;;;;;;;;;;;;;;;;;;2197724;59;7104;-20
2023/12/08 15:54:10;;;;;;;;;;;;;;;;;;2205347;59;6538;-19
2023/12/08 15:56:42;;;;;;;;;;;;;;;;;;2203118;59;6635;-20
2023/12/08 15:59:13;;;;;;;;;;;;;;;;;;2204910;59;6858;-19
2023/12/08 16:01:44;;;;;;;;;;;;;;;;;;2206913;59;7149;-20
2023/12/08 16:04:15;;;;;;;;;;;;;;;;;;2204127;59;8088;-19
2023/12/08 16:06:45;;;;;;;;;;;;;;;;;;2202694;59;6902;-17
2023/12/08 16:09:16;;;;;;;;;;;;;;;;;;2201289;59;6965;-17
2023/12/08 16:11:46;;;;;;;;;;;;;;;;;;2202988;59;7452;-17
2023/12/08 16:14:17;;;;;;;;;;;;;;;;;;2200513;59;7025;-17
2023/12/08 16:16:48;;;;;;;;;;;;;;;;;;2204540;59;6617;-17
2023/12/08 16:19:19;;;;;;;;;;;;;;;;;;2200149;59;7114;-18
2023/12/08 16:21:49;;;;;;;;;;;;;;;;;;2195888;59;6843;-17
2023/12/08 16:24:19;;;;;;;;;;;;;;;;;;2202864;59;6912;-19
2023/12/08 16:26:50;;;;;;;;;;;;;;;;;;2204464;59;6946;-21
2023/12/08 16:29:20;;;;;;;;;;;;;;;;;;2201591;59;6823;-20
2023/12/08 16:31:51;;;;;;;;;;;;;;;;;;2201377;59;6709;-20
2023/12/08 16:34:21;;;;;;;;;;;;;;;;;;2203708;59;6702;-20
2023/12/08 16:36:51;;;;;;;;;;;;;;;;;;2200768;59;6620;-19
2023/12/08 16:39:23;;;;;;;;;;;;;;;;;;2198826;66;8141;-18
2023/12/08 16:41:55;;;;;;;;;;;;;;;;;;2195622;59;7741;-20
2023/12/08 16:44:25;;;;;;;;;;;;;;;;;;2199632;59;6686;-20
2023/12/08 16:46:56;;;;;;;;;;;;;;;;;;2198915;59;6687;-19
2023/12/08 16:49:26;;;;;;;;;;;;;;;;;;2201967;59;6785;-20
2023/12/08 16:51:56;;;;;;;;;;;;;;;;;;2201902;67;6819;-19
2023/12/08 16:54:26;;;;;;;;;;;;;;;;;;2202613;67;7521;-18
2023/12/08 16:56:57;;;;;;;;;;;;;;;;;;2202232;67;7505;-21
2023/12/08 16:59:27;;;;;;;;;;;;;;;;;;2202615;59;6876;-18
2023/12/08 17:01:57;;;;;;;;;;;;;;;;;;2200801;59;7281;-19
2023/12/08 17:04:27;;;;;;;;;;;;;;;;;;2203422;59;6922;-21
2023/12/08 17:06:58;;;;;;;;;;;;;;;;;;2202458;59;7488;-20
2023/12/08 17:09:29;;;;;;;;;;;;;;;;;;2204975;59;6658;-20
2023/12/08 17:11:59;;;;;;;;;;;;;;;;;;2204316;59;6721;-20
2023/12/08 17:14:29;;;;;;;;;;;;;;;;;;2202737;59;7132;-21
2023/12/08 17:17:00;;;;;;;;;;;;;;;;;;2205522;59;6605;-20
2023/12/08 17:19:30;;;;;;;;;;;;;;;;;;2197539;67;7325;-20
2023/12/08 17:22:00;;;;;;;;;;;;;;;;;;2204516;59;7213;-22
2023/12/08 17:24:30;;;;;;;;;;;;;;;;;;2207191;59;7036;-22
2023/12/08 17:27:01;;;;;;;;;;;;;;;;;;2205779;67;7734;-21
2023/12/08 17:29:31;;;;;;;;;;;;;;;;;;2205812;59;7085;-20
2023/12/08 17:32:01;;;;;;;;;;;;;;;;;;2203764;59;6970;-22
2023/12/08 17:34:32;;;;;;;;;;;;;;;;;;2203547;59;7175;-21
2023/12/08 17:37:02;;;;;;;;;;;;;;;;;;2203897;59;7062;-21
2023/12/08 17:39:33;;;;;;;;;;;;;;;;;;2200908;59;7742;-19
2023/12/08 17:42:04;;;;;;;;;;;;;;;;;;2198081;59;7296;-21
2023/12/08 17:44:34;;;;;;;;;;;;;;;;;;2203400;59;7084;-22
2023/12/08 17:47:04;;;;;;;;;;;;;;;;;;2203593;59;8040;-20
2023/12/08 17:49:34;;;;;;;;;;;;;;;;;;2202355;67;7250;-22
2023/12/08 17:52:05;;;;;;;;;;;;;;;;;;2204186;66;7177;-20
2023/12/08 17:54:35;;;;;;;;;;;;;;;;;;2200731;63;8096;-21
2023/12/08 17:57:05;;;;;;;;;;;;;;;;;;2198857;67;7688;-21
2023/12/08 17:59:36;;;;;;;;;;;;;;;;;;2203141;67;7283;-22
2023/12/08 18:02:06;;;;;;;;;;;;;;;;;;2199640;59;7222;-19